Time;durP1;ratioP1;P1;durP2;ratioP2;P2;SDS_P1;SDS_P2;PMS_P1;PMS_P2;Temp;Humidity;BMP_temperature;BMP_pressure;BME280_temperature;BME280_humidity;BME280_pressure;Samples;Min_cycle;Max_cycle;Signal;HPM_P1;HPM_P2
2023/09/25 00:07:03;;;;;;;3.08;1.60;;;15.50;1.00;;;;;;20578462;28;20140;-41
2023/09/25 00:17:04;;;;;;;3.60;1.80;;;15.50;1.00;;;;;;20574508;28;21091;-41
2023/09/25 00:27:04;;;;;;;3.67;2.08;;;15.30;1.00;;;;;;20565355;28;20046;-41
2023/09/25 00:37:05;;;;;;;3.17;1.70;;;15.30;1.00;;;;;;20563820;28;20180;-41
2023/09/25 00:47:08;;;;;;;3.20;1.83;;;15.20;1.00;;;;;;20565990;28;20144;-41
2023/09/25 00:57:12;;;;;;;4.55;1.95;;;15.20;1.00;;;;;;20560430;28;20046;-41
2023/09/25 01:07:12;;;;;;;3.90;1.63;;;15.10;1.00;;;;;;20563276;28;20102;-41
2023/09/25 01:17:13;;;;;;;3.40;1.88;;;15.20;1.00;;;;;;20565054;28;20038;-41
2023/09/25 01:27:13;;;;;;;3.72;1.90;;;15.10;1.00;;;;;;20556416;28;20073;-41
2023/09/25 01:37:14;;;;;;;3.78;2.03;;;14.90;1.00;;;;;;20560738;28;20142;-40
2023/09/25 01:47:16;;;;;;;4.40;2.20;;;14.90;1.00;;;;;;20581618;28;20042;-41
2023/09/25 01:57:17;;;;;;;3.95;2.00;;;14.70;1.00;;;;;;20575900;28;20038;-41
2023/09/25 02:07:18;;;;;;;5.32;2.20;;;14.70;1.00;;;;;;20574263;28;20054;-41
2023/09/25 02:17:19;;;;;;;4.70;2.15;;;14.70;1.00;;;;;;20570352;28;20398;-41
2023/09/25 02:27:19;;;;;;;6.75;2.10;;;14.50;1.00;;;;;;20571680;28;20049;-40
2023/09/25 02:37:20;;;;;;;4.55;2.08;;;14.50;1.00;;;;;;20569323;28;20056;-41
2023/09/25 02:47:20;;;;;;;6.25;1.85;;;14.40;1.00;;;;;;20568951;28;20054;-41
2023/09/25 02:57:21;;;;;;;3.97;2.10;;;14.50;1.00;;;;;;20569323;28;20129;-41
2023/09/25 03:07:21;;;;;;;4.80;1.50;;;14.60;1.00;;;;;;20568772;28;20050;-41
2023/09/25 03:17:22;;;;;;;4.63;1.60;;;14.60;1.00;;;;;;20574330;28;20042;-41
2023/09/25 03:27:23;;;;;;;3.28;1.55;;;14.50;1.00;;;;;;20577950;28;20466;-40
2023/09/25 03:37:23;;;;;;;4.43;1.65;;;14.50;1.00;;;;;;20570353;28;20119;-41
2023/09/25 03:47:24;;;;;;;3.83;1.65;;;14.50;1.00;;;;;;20566197;28;20058;-41
2023/09/25 03:57:24;;;;;;;3.33;1.98;;;14.40;1.00;;;;;;20566924;28;20066;-41
2023/09/25 04:07:25;;;;;;;6.97;2.10;;;14.50;1.00;;;;;;20580033;28;20264;-41
2023/09/25 04:17:27;;;;;;;7.40;2.13;;;14.30;1.00;;;;;;20573181;28;20046;-41
2023/09/25 04:27:27;;;;;;;4.70;1.98;;;14.20;1.00;;;;;;20570010;28;20066;-41
2023/09/25 04:37:30;;;;;;;5.40;2.25;;;14.20;1.00;;;;;;20574743;28;20049;-40
2023/09/25 04:47:30;;;;;;;5.00;1.90;;;14.10;1.00;;;;;;20574672;28;20039;-40
2023/09/25 04:57:31;;;;;;;3.65;1.77;;;14.10;1.00;;;;;;20571300;28;20137;-41
2023/09/25 05:07:31;;;;;;;4.03;1.60;;;14.00;1.00;;;;;;20570923;28;20467;-40
2023/09/25 05:17:32;;;;;;;3.85;1.85;;;14.10;1.00;;;;;;20587214;28;20046;-41
2023/09/25 05:27:34;;;;;;;4.40;2.20;;;14.00;1.00;;;;;;20592664;28;20077;-40
2023/09/25 05:37:34;;;;;;;3.78;2.00;;;14.10;1.00;;;;;;20593633;28;20042;-41
2023/09/25 05:47:35;;;;;;;4.38;1.90;;;14.00;1.00;;;;;;20587198;28;20092;-41
2023/09/25 05:57:36;;;;;;;4.93;1.85;;;14.00;1.00;;;;;;20590429;28;20050;-41
2023/09/25 06:07:37;;;;;;;5.10;1.90;;;14.10;1.00;;;;;;20579542;28;20042;-40
2023/09/25 06:17:39;;;;;;;4.10;2.05;;;14.20;1.00;;;;;;20582241;28;20495;-41
2023/09/25 06:27:39;;;;;;;4.80;2.00;;;14.20;1.00;;;;;;20580780;28;20045;-41
2023/09/25 06:37:40;;;;;;;3.95;1.90;;;14.40;1.00;;;;;;20581632;28;20089;-41
2023/09/25 06:47:41;;;;;;;4.72;1.75;;;14.40;1.00;;;;;;20589452;28;21434;-41
2023/09/25 06:57:41;;;;;;;4.57;1.70;;;14.40;1.00;;;;;;20584822;28;20046;-41
2023/09/25 07:07:42;;;;;;;4.20;2.00;;;14.60;1.00;;;;;;20590266;28;20967;-41
2023/09/25 07:17:42;;;;;;;4.45;2.20;;;14.60;1.00;;;;;;20583772;28;20050;-41
2023/09/25 07:27:43;;;;;;;5.28;2.22;;;14.80;1.00;;;;;;20576748;28;20129;-40
2023/09/25 07:37:44;;;;;;;5.20;1.88;;;14.80;1.00;;;;;;20573930;28;20050;-41
2023/09/25 07:47:45;;;;;;;6.13;2.55;;;15.00;1.00;;;;;;20575609;28;20042;-41
2023/09/25 07:57:45;;;;;;;4.43;1.80;;;15.00;1.00;;;;;;20582289;28;20092;-41
2023/09/25 08:07:48;;;;;;;5.78;1.98;;;15.20;1.00;;;;;;20581375;28;20054;-41
2023/09/25 08:17:49;;;;;;;3.55;1.75;;;15.20;1.00;;;;;;20575875;28;20088;-41
2023/09/25 08:27:51;;;;;;;3.10;1.60;;;15.30;1.00;;;;;;20577716;28;20089;-40
2023/09/25 08:37:51;;;;;;;4.43;2.10;;;15.50;1.00;;;;;;20577321;28;20485;-41
2023/09/25 08:47:52;;;;;;;5.20;1.83;;;15.80;1.00;;;;;;20578997;28;20053;-41
2023/09/25 08:57:53;;;;;;;4.57;1.90;;;16.10;1.00;;;;;;20604731;28;20116;-41
2023/09/25 09:08:02;;;;;;;4.03;2.10;;;16.50;1.00;;;;;;20602873;28;20100;-41
2023/09/25 09:18:23;;;;;;;4.43;2.10;;;16.60;1.00;;;;;;20598751;28;20041;-41
2023/09/25 09:28:25;;;;;;;5.88;2.83;;;16.70;1.00;;;;;;20598709;28;20066;-41
2023/09/25 09:38:25;;;;;;;5.60;2.40;;;16.90;1.00;;;;;;20592239;28;20733;-41
2023/09/25 09:48:29;;;;;;;5.32;2.28;;;17.10;1.00;;;;;;20600769;28;20926;-41
2023/09/25 09:58:31;;;;;;;6.28;2.08;;;17.20;1.00;;;;;;20611095;28;20506;-41
2023/09/25 10:08:32;;;;;;;5.82;2.45;;;17.20;1.00;;;;;;20598389;28;20473;-41
2023/09/25 10:18:32;;;;;;;3.72;1.95;;;17.50;1.00;;;;;;20592352;28;20038;-41
2023/09/25 10:28:38;;;;;;;6.03;2.40;;;17.70;1.00;;;;;;20582764;28;20441;-41
2023/09/25 10:38:41;;;;;;;6.53;2.75;;;18.20;1.00;;;;;;20583936;28;20046;-41
2023/09/25 10:48:42;;;;;;;7.82;4.00;;;18.50;1.00;;;;;;20582065;28;20061;-40
2023/09/25 10:58:47;;;;;;;6.43;2.63;;;18.80;1.00;;;;;;20591805;28;20093;-41
2023/09/25 11:08:58;;;;;;;4.75;2.40;;;19.40;1.00;;;;;;20582909;28;20038;-41
2023/09/25 11:19:13;;;;;;;4.88;2.30;;;20.10;1.00;;;;;;20583432;28;20066;-41
2023/09/25 11:29:15;;;;;;;5.90;2.47;;;20.40;1.00;;;;;;20580017;28;20043;-41
2023/09/25 11:39:16;;;;;;;7.13;2.20;;;20.70;1.00;;;;;;20577684;28;20053;-41
2023/09/25 11:49:17;;;;;;;5.30;2.40;;;20.90;1.00;;;;;;20575490;28;20043;-42
2023/09/25 11:59:17;;;;;;;7.93;2.80;;;21.00;1.00;;;;;;20579541;28;20030;-42
2023/09/25 12:09:18;;;;;;;5.68;3.20;;;21.10;1.00;;;;;;20583797;28;20042;-42
2023/09/25 12:19:19;;;;;;;5.57;3.20;;;21.10;1.00;;;;;;20581815;28;20105;-41
2023/09/25 12:29:19;;;;;;;5.05;2.33;;;21.60;1.00;;;;;;20578145;28;20126;-42
2023/09/25 12:39:20;;;;;;;4.82;2.30;;;21.80;1.00;;;;;;20579452;28;20038;-42
2023/09/25 12:49:20;;;;;;;4.47;2.40;;;21.60;1.00;;;;;;20583311;28;20062;-42
2023/09/25 12:59:21;;;;;;;4.82;2.78;;;22.30;1.00;;;;;;20578789;28;20039;-42
2023/09/25 13:09:22;;;;;;;4.63;2.50;;;23.00;1.00;;;;;;20578611;28;20506;-42
2023/09/25 13:19:23;;;;;;;5.68;2.50;;;22.60;1.00;;;;;;20576191;28;20038;-42
2023/09/25 13:29:24;;;;;;;4.57;2.40;;;22.10;1.00;;;;;;20578711;28;20415;-42
2023/09/25 13:39:24;;;;;;;5.82;2.70;;;22.80;1.00;;;;;;20583407;28;20046;-42
2023/09/25 13:49:26;;;;;;;4.23;2.37;;;23.30;1.00;;;;;;20606002;28;20577;-42
2023/09/25 13:59:27;;;;;;;5.05;2.60;;;22.60;1.00;;;;;;20600631;28;20410;-41
2023/09/25 14:09:27;;;;;;;6.20;3.17;;;21.80;1.00;;;;;;20599194;28;20046;-42
2023/09/25 14:19:28;;;;;;;4.60;2.58;;;21.40;1.00;;;;;;20582215;28;20073;-42
2023/09/25 14:29:30;;;;;;;4.90;2.95;;;21.30;1.00;;;;;;20594379;28;20042;-41
2023/09/25 14:39:31;;;;;;;7.28;2.97;;;21.40;1.00;;;;;;20585490;28;20113;-42
2023/09/25 14:49:31;;;;;;;6.00;2.95;;;21.30;1.00;;;;;;20588527;28;20430;-41
2023/09/25 14:59:32;;;;;;;6.40;3.10;;;21.30;1.00;;;;;;20586964;28;20073;-42
2023/09/25 15:09:33;;;;;;;6.80;3.08;;;21.60;1.00;;;;;;20578847;28;20038;-41
2023/09/25 15:19:33;;;;;;;7.15;3.08;;;21.50;1.00;;;;;;20584914;28;20185;-41
2023/09/25 15:29:37;;;;;;;6.93;3.10;;;21.30;1.00;;;;;;20586895;28;20053;-42
2023/09/25 15:39:39;;;;;;;3.85;2.22;;;21.40;1.00;;;;;;20576172;28;20046;-41
2023/09/25 15:49:39;;;;;;;5.35;2.22;;;21.30;1.00;;;;;;20574874;28;20049;-41
2023/09/25 15:59:40;;;;;;;8.18;2.67;;;21.20;1.00;;;;;;20572770;28;20038;-41
2023/09/25 16:09:41;;;;;;;4.50;2.28;;;21.00;1.00;;;;;;20574857;28;20038;-41
2023/09/25 16:19:41;;;;;;;5.82;2.75;;;20.80;1.00;;;;;;20575211;28;20133;-41
2023/09/25 16:29:42;;;;;;;6.18;2.30;;;20.60;1.00;;;;;;20576923;28;20470;-42
2023/09/25 16:39:42;;;;;;;4.25;2.15;;;20.50;1.00;;;;;;20577467;28;20529;-41
2023/09/25 16:49:43;;;;;;;5.05;2.08;;;20.40;1.00;;;;;;20572179;28;20418;-42
2023/09/25 16:59:48;;;;;;;4.43;2.10;;;20.30;1.00;;;;;;20554942;28;20125;-41
2023/09/25 17:09:49;;;;;;;4.68;2.40;;;20.10;1.00;;;;;;20553532;28;20038;-42
2023/09/25 17:19:49;;;;;;;6.28;2.63;;;20.10;1.00;;;;;;20571751;28;20061;-41
2023/09/25 17:29:50;;;;;;;5.68;2.60;;;19.90;1.00;;;;;;20558319;28;20143;-41
2023/09/25 17:39:50;;;;;;;5.05;2.45;;;19.80;1.00;;;;;;20564026;28;20053;-41
2023/09/25 17:49:51;;;;;;;5.47;2.65;;;19.60;1.00;;;;;;20562873;28;20509;-41
2023/09/25 17:59:51;;;;;;;6.18;2.65;;;19.70;1.00;;;;;;20573122;28;20733;-42
2023/09/25 18:09:52;;;;;;;6.47;2.63;;;19.50;1.00;;;;;;20573402;28;20578;-41
2023/09/25 18:19:53;;;;;;;5.13;2.60;;;19.50;1.00;;;;;;20577757;28;20050;-41
2023/09/25 18:29:54;;;;;;;5.78;2.60;;;19.30;1.00;;;;;;20571605;28;20423;-41
2023/09/25 18:39:54;;;;;;;5.22;2.60;;;19.20;1.00;;;;;;20577598;28;20046;-41
2023/09/25 18:49:56;;;;;;;5.35;2.60;;;19.10;1.00;;;;;;20564794;28;20150;-42
2023/09/25 18:59:58;;;;;;;6.00;2.70;;;18.90;1.00;;;;;;20578602;28;20073;-41
2023/09/25 19:10:03;;;;;;;5.43;2.70;;;18.80;1.00;;;;;;20562785;28;20136;-41
2023/09/25 19:20:04;;;;;;;5.38;2.60;;;18.60;1.00;;;;;;20563104;28;20097;-41
2023/09/25 19:30:05;;;;;;;6.28;2.47;;;18.30;1.00;;;;;;20578166;28;20177;-41
2023/09/25 19:40:06;;;;;;;5.30;2.67;;;17.90;1.00;;;;;;20566505;28;20046;-42
2023/09/25 19:50:07;;;;;;;5.43;2.50;;;17.70;1.00;;;;;;20561743;28;20038;-41
2023/09/25 20:00:10;;;;;;;7.10;2.70;;;17.50;1.00;;;;;;20554335;28;20096;-41
2023/09/25 20:10:11;;;;;;;7.88;3.28;;;17.50;1.00;;;;;;20540350;28;20462;-41
2023/09/25 20:20:11;;;;;;;6.05;3.08;;;17.40;1.00;;;;;;20541909;28;20249;-41
2023/09/25 20:30:13;;;;;;;5.90;3.67;;;17.30;7.80;;;;;;20543897;28;20051;-41
2023/09/25 20:40:16;;;;;;;7.65;3.70;;;17.20;10.00;;;;;;20553187;28;20425;-41
2023/09/25 20:50:23;;;;;;;8.45;3.70;;;16.90;10.40;;;;;;20544994;28;20173;-41
2023/09/25 21:00:23;;;;;;;8.23;4.33;;;16.80;6.60;;;;;;20549351;28;20426;-41
2023/09/25 21:10:24;;;;;;;9.87;4.40;;;16.60;19.60;;;;;;20547288;28;20082;-41
2023/09/25 21:20:24;;;;;;;8.60;4.28;;;16.50;23.70;;;;;;20547213;28;20057;-41
2023/09/25 21:30:25;;;;;;;6.85;4.05;;;16.40;33.60;;;;;;20544497;28;20039;-41
2023/09/25 21:40:26;;;;;;;7.43;4.40;;;16.20;33.40;;;;;;20534843;28;20058;-41
2023/09/25 21:50:26;;;;;;;5.67;3.93;;;16.10;38.30;;;;;;20538599;28;20054;-41
2023/09/25 22:00:27;;;;;;;6.60;3.70;;;16.00;44.20;;;;;;20543410;28;20056;-41
2023/09/25 22:10:28;;;;;;;8.52;3.80;;;15.90;48.20;;;;;;20552799;28;20327;-41
2023/09/25 22:20:33;;;;;;;6.10;4.20;;;15.80;51.10;;;;;;20559529;28;20046;-41
2023/09/25 22:30:34;;;;;;;5.93;3.70;;;15.70;59.70;;;;;;20563493;28;20077;-41
2023/09/25 22:40:36;;;;;;;10.00;4.10;;;15.60;62.40;;;;;;20559464;28;20054;-41
2023/09/25 22:50:36;;;;;;;6.88;4.00;;;15.60;69.10;;;;;;20554503;28;20655;-41
2023/09/25 23:00:37;;;;;;;8.80;4.53;;;15.50;79.20;;;;;;20548348;28;20046;-41
2023/09/25 23:10:38;;;;;;;7.55;4.30;;;15.40;89.80;;;;;;20547313;28;20464;-41
2023/09/25 23:20:39;;;;;;;6.38;4.50;;;15.30;88.60;;;;;;20553473;28;20052;-41
2023/09/25 23:30:39;;;;;;;7.43;4.82;;;15.20;81.50;;;;;;20553177;28;20046;-41
2023/09/25 23:40:40;;;;;;;6.45;4.47;;;15.10;71.70;;;;;;20549999;28;20051;-41
2023/09/25 23:50:40;;;;;;;9.70;5.53;;;15.10;73.70;;;;;;20549014;28;20411;-41
